Mentor, OH (44060)

6:19 AM EST on January 24, 2017 (GMT -0500)
Living Homes | | Change Station

Elev 623 ft 41.70 °N, 81.35 °W | Updated 9 seconds ago

Rain
Rain
35.2 °F
Feels Like 30 °F
N
5.8
Wind Variable Wind from NE
Gusts 7.4 mph

Today
High -- | Low -- °F
--% Chance of Precip.
Yesterday
High -- | Low -- °F
Precip. -- in
Pressure 29.70 in
Visibility 9.0 miles
Clouds Overcast 1000 ft
Windchill 30 °F
Dew Point 21 °F
Humidity 56%
Rainfall 0.04 in
Snow Depth Not available.
7:44 AM 5:31 PM
Waning Crescent, 12% visible
SPECI KBKL 241112Z 01010KT 9SM UP OVC010 02/01 A2970 RMK AO2 P0000 T00170006 $
Pressure 29.70 in
Visibility 9.0 miles
Clouds Overcast 1000 ft
Windchill 30 °F
Dew Point 21 °F
Humidity 56%
Rainfall 0.04 in
Snow Depth Not available.
7:44 AM 5:31 PM
Waning Crescent, 12% visible
SPECI KBKL 241112Z 01010KT 9SM UP OVC010 02/01 A2970 RMK AO2 P0000 T00170006 $

Get Your Daily Forecast Email!

Thanks for signing up!

Be on the lookout for a verification email in your inbox.

You'll start receiving the daily forecast at 8 AM.

×

10-Day Weather Forecast

Almanac

Astronomy

Jan. 24, 2017 Rise Set
Actual Time
Civil Twilight
Nautical Twilight
Astronomical Twilight
Moon
Length of Visible Light
Length of Day
Tomorrow will be .
, % of the Moon is Illuminated

Today's Extremes

State Highs State Lows

Community

WunderPhotos

Upload Photos

1,962,540 photos uploaded!

WunderBlog® & News

Nearby

Air Quality

  Air Quality AQ Index Pollutant
Not available.

Snow Depth

Station Depth Elevation

Earthquake Activity

City Distance Mag. Time & Date
Minimum magnitude displayed is 2.5.

Coastal Water Temperatures

Place Temperature

Stations

Nearby Weather Stations

Station Location Temp. Windchill Dew Point Humidity Wind Precip. Elev Updated Type
                   

Watches & Warnings

There are currently no watches in effect.